Data for 03/07/2015

Time Sea-Level Adjusted Pressure Absolute Pressure Temperature Relative Humidity Dew Point   
(mb) (inHg) (mb) (inHg) (C) (F) (%) (C) (F)
00:05 1026 30.3 855 25.25 8.4 47.1 29 -8.7 16.3
00:10 1026 30.3 855 25.25 8.2 46.8 30 -8.5 16.8
00:15 1026 30.3 855 25.25 8 46.4 30 -8.4 16.8
00:20 1026 30.3 855 25.25 7.9 46.2 31 -8.3 17.1
00:25 1026 30.3 855 25.25 7.5 45.6 32 -8.1 17.5
00:30 1026 30.3 855 25.25 7.3 45.1 33 -7.9 17.9
00:35 1026 30.3 855 25.25 7.1 44.8 34 -7.9 17.9
00:40 1026 30.3 855 25.25 7.3 45.2 33 -8 17.6
00:45 1026 30.3 855 25.25 7.3 45.1 33 -7.9 17.8
00:50 1026 30.3 855 25.25 7 44.7 35 -7.5 18.5
00:55 1026 30.3 855 25.25 6.8 44.3 35 -7.7 18.1
01:00 1026 30.3 855 25.25 6.5 43.8 36 -7.6 18.3
01:05 1026 30.3 855 25.25 6.3 43.3 38 -7.1 19.3
01:10 1026 30.3 855 25.25 6 42.8 39 -6.8 19.7
01:15 1026 30.3 855 25.25 5.9 42.6 38 -7.4 18.7
01:20 1026 30.3 855 25.25 6.3 43.4 37 -7.3 18.8
01:25 1026 30.3 855 25.25 6.5 43.6 36 -7.4 18.6
01:30 1026 30.3 855 25.25 6.3 43.4 40 -6.4 20.5
01:35 1025 30.27 855 25.25 5.7 42.2 42 -6.2 20.9
01:40 1025 30.27 854 25.22 5.2 41.3 43 -6.4 20.5
01:45 1025 30.27 854 25.22 5.1 41.1 41 -7 19.4
01:50 1025 30.27 854 25.22 5.6 42.1 40 -7.1 19.2
01:55 1025 30.27 854 25.22 5.9 42.6 39 -7 19.5
02:00 1025 30.27 855 25.25 5.7 42.2 40 -6.8 19.8
02:05 1025 30.27 854 25.22 5.5 41.9 41 -6.8 19.8
02:10 1025 30.27 854 25.22 5.5 41.9 43 -6.2 20.8
02:15 1025 30.27 854 25.22 5 41 44 -6.3 20.6
02:20 1025 30.27 854 25.22 4.4 40 43 -6.9 19.5
02:25 1025 30.27 854 25.22 4.7 40.4 43 -6.9 19.6
02:30 1025 30.27 854 25.22 4.6 40.3 43 -6.9 19.6
02:35 1025 30.27 854 25.22 4.7 40.4 41 -7.4 18.6
02:40 1025 30.27 854 25.22 4.9 40.8 40 -7.7 18.2
02:45 1025 30.27 854 25.22 5.3 41.5 39 -7.7 18.1
02:50 1025 30.27 854 25.22 5.4 41.7 39 -7.5 18.5
02:55 1025 30.27 854 25.22 5.3 41.5 40 -7.4 18.7
03:00 1025 30.27 854 25.22 4.9 40.8 42 -7 19.4
03:05 1025 30.27 854 25.22 4.4 40 42 -7.4 18.6
03:10 1025 30.27 854 25.22 4.4 40 42 -7.4 18.7
03:15 1025 30.27 854 25.22 4.3 39.8 42 -7.5 18.6
03:20 1025 30.27 854 25.22 4.2 39.5 40 -8.2 17.3
03:25 1025 30.27 854 25.22 4.9 40.7 38 -8.4 16.8
03:30 1025 30.27 854 25.22 5.3 41.6 37 -8.1 17.5
03:35 1025 30.27 854 25.22 5.4 41.7 38 -7.7 18.2
03:40 1025 30.27 854 25.22 5.2 41.4 38 -7.8 17.9
03:45 1025 30.27 854 25.22 5.2 41.4 40 -7.4 18.6
03:50 1025 30.27 854 25.22 5.1 41.2 40 -7.4 18.7
03:55 1025 30.27 854 25.22 4.9 40.8 41 -7.2 19.1
04:00 1025 30.27 854 25.22 4.7 40.4 42 -7.1 19.2
04:05 1025 30.27 854 25.22 4.3 39.8 44 -7 19.4
04:10 1025 30.27 854 25.22 4.1 39.3 45 -6.8 19.7
04:15 1025 30.27 854 25.22 4.1 39.4 44 -7.1 19.3
04:20 1025 30.27 854 25.22 4 39.3 44 -7.2 19.1
04:25 1025 30.27 854 25.22 4.3 39.8 44 -6.8 19.8
04:30 1025 30.27 854 25.22 3.8 38.9 45 -7.1 19.3
04:35 1025 30.27 854 25.22 3.3 37.9 45 -7.5 18.6
04:40 1024 30.24 854 25.22 3 37.3 47 -7.2 19.1
04:45 1024 30.24 854 25.22 2.6 36.6 49 -7.1 19.2
04:50 1024 30.24 854 25.22 2.2 36 51 -7 19.5
04:55 1024 30.24 854 25.22 1.8 35.3 53 -6.8 19.7
05:00 1024 30.24 854 25.22 1.6 34.9 53 -7 19.3
05:05 1024 30.24 853 25.19 1.5 34.6 54 -6.9 19.6
05:10 1024 30.24 853 25.19 1.3 34.4 55 -6.7 19.9
05:15 1024 30.24 853 25.19 1.3 34.3 55 -6.7 19.9
05:20 1024 30.24 853 25.19 1.3 34.3 55 -6.7 19.9
05:25 1024 30.24 853 25.19 1.3 34.3 55 -6.8 19.8
05:30 1024 30.24 853 25.19 1.4 34.5 54 -6.8 19.7
05:35 1024 30.24 853 25.19 1.4 34.6 54 -7 19.5
05:40 1024 30.24 853 25.19 1.7 35.1 52 -7 19.4
05:45 1024 30.24 853 25.19 1.9 35.4 52 -7 19.5
05:50 1024 30.24 853 25.19 2.1 35.8 49 -7.4 18.7
05:55 1024 30.24 853 25.19 2.5 36.4 47 -7.8 18
06:00 1024 30.24 853 25.19 2.8 37 46 -7.8 18
06:05 1024 30.24 853 25.19 2.9 37.2 46 -7.6 18.4
06:10 1024 30.24 853 25.19 2.7 36.9 47 -7.6 18.3
06:15 1024 30.24 853 25.19 2.8 37 46 -7.8 17.9
06:20 1024 30.24 853 25.19 2.9 37.3 45 -7.9 17.7
06:25 1024 30.24 853 25.19 3.1 37.5 44 -8.1 17.4
06:30 1024 30.24 853 25.19 3.2 37.7 44 -8.1 17.5
06:35 1024 30.24 853 25.19 3.2 37.7 45 -7.8 18
06:40 1024 30.24 853 25.19 3 37.5 44 -8.1 17.4
06:45 1024 30.24 853 25.19 3 37.5 45 -7.7 18.1
06:50 1024 30.24 853 25.19 2.8 37.1 46 -7.8 18
06:55 1024 30.24 853 25.19 2.8 37 47 -7.5 18.4
07:00 1024 30.24 853 25.19 2.4 36.4 50 -7.1 19.3
07:05 1024 30.24 853 25.19 2.2 35.9 50 -7.1 19.2
07:10 1024 30.24 853 25.19 2.1 35.9 50 -7.3 18.9
07:15 1024 30.24 853 25.19 2.1 35.7 50 -7.3 18.8
07:20 1024 30.24 853 25.19 1.8 35.2 52 -6.9 19.5
07:25 1024 30.24 853 25.19 1.1 33.9 56 -6.8 19.7
07:30 1024 30.24 853 25.19 0.5 32.9 58 -6.8 19.7
07:35 1024 30.24 853 25.19 0.4 32.8 57 -7 19.4
07:40 1024 30.24 853 25.19 0.5 33 57 -7.1 19.2
07:45 1024 30.24 853 25.19 0.7 33.2 56 -7.1 19.3
07:50 1024 30.24 853 25.19 0.7 33.3 56 -7.1 19.2
07:55 1024 30.24 853 25.19 0.8 33.4 54 -7.4 18.7
08:00 1024 30.24 853 25.19 1 33.9 53 -7.4 18.6
08:05 1024 30.24 853 25.19 1.2 34.1 53 -7.4 18.7
08:10 1024 30.24 853 25.19 1.2 34.1 52 -7.6 18.3
08:15 1024 30.24 853 25.19 1.5 34.7 50 -7.8 18
08:20 1024 30.24 853 25.19 1.8 35.3 49 -7.7 18.1
08:25 1023 30.21 853 25.19 1.9 35.3 50 -7.4 18.6
08:30 1023 30.21 853 25.19 1.9 35.5 50 -7.5 18.4
08:35 1023 30.21 853 25.19 2.4 36.3 49 -7.2 19.1
08:40 1023 30.21 853 25.19 2.6 36.7 51 -6.6 20.1
08:45 1023 30.21 853 25.19 2.9 37.2 49 -6.9 19.7
08:50 1023 30.21 853 25.19 3.5 38.4 46 -7.1 19.2
08:55 1023 30.21 853 25.19 3.9 39 46 -6.8 19.8
09:00 1023 30.21 853 25.19 4 39.2 47 -6.5 20.4
09:05 1023 30.21 853 25.19 4 39.2 46 -6.5 20.2
09:10 1023 30.21 853 25.19 4.1 39.4 46 -6.4 20.5
09:15 1023 30.21 853 25.19 4.1 39.4 46 -6.5 20.3
09:20 1023 30.21 853 25.19 4.3 39.8 46 -6.4 20.4
09:25 1023 30.21 853 25.19 4.7 40.4 44 -6.7 20
09:30 1023 30.21 853 25.19 5.4 41.7 41 -6.7 20
09:35 1023 30.21 853 25.19 6.1 43 40 -6.6 20.1
09:40 1023 30.21 853 25.19 6.7 44 38 -6.5 20.2
09:45 1023 30.21 853 25.19 6.9 44.4 39 -6.3 20.7
09:50 1023 30.21 853 25.19 6.9 44.4 40 -5.8 21.6
09:55 1023 30.21 853 25.19 7 44.6 40 -5.7 21.8
10:00 1023 30.21 853 25.19 7.3 45.2 39 -5.6 22
10:05 1023 30.21 853 25.19 7.5 45.5 37 -6.4 20.5
10:10 1023 30.21 853 25.19 7.9 46.2 35 -6.8 19.8
10:15 1023 30.21 853 25.19 8.1 46.5 35 -6.3 20.6
10:20 1023 30.21 853 25.19 8.4 47 35 -6.2 20.9
10:25 1023 30.21 853 25.19 8.1 46.7 35 -6.4 20.6
10:30 1024 30.24 853 25.19 8.2 46.8 35 -6.4 20.5
10:35 1024 30.24 853 25.19 8.5 47.3 33 -7 19.4
10:40 1024 30.24 853 25.19 8.6 47.5 33 -6.9 19.5
10:45 1024 30.24 853 25.19 8.3 47 33 -6.9 19.7
10:50 1024 30.24 853 25.19 8.1 46.6 34 -6.7 20
10:55 1024 30.24 853 25.19 8.1 46.5 34 -6.9 19.6
11:00 1023 30.21 853 25.19 8.1 46.5 33 -7.1 19.3
11:05 1023 30.21 853 25.19 8 46.4 34 -7.1 19.3
11:10 1023 30.21 853 25.19 8.1 46.5 33 -7.1 19.2
11:15 1023 30.21 853 25.19 8 46.3 33 -7.2 19.1
11:20 1023 30.21 853 25.19 8.2 46.8 34 -6.9 19.6
11:25 1023 30.21 853 25.19 8.6 47.5 32 -7 19.4
11:30 1023 30.21 853 25.19 8.6 47.4 32 -7.2 19.1
11:35 1023 30.21 853 25.19 8.4 47.2 32 -7.2 19
11:40 1023 30.21 853 25.19 8.5 47.3 32 -7.3 18.9
11:45 1023 30.21 853 25.19 8.6 47.4 31 -7.5 18.6
11:50 1023 30.21 853 25.19 8.5 47.2 32 -7.1 19.2
11:55 1023 30.21 853 25.19 8.3 47 32 -7.2 19
12:00 1023 30.21 853 25.19 8.5 47.3 32 -7.2 19.1
12:05 1023 30.21 853 25.19 8.8 47.9 31 -7.2 19.1
12:10 1023 30.21 852 25.16 8.8 47.9 31 -7.2 19
12:15 1023 30.21 852 25.16 8.6 47.4 33 -6.9 19.5
12:20 1023 30.21 852 25.16 8.8 47.9 32 -7 19.3
12:25 1023 30.21 852 25.16 9.3 48.7 29 -7.8 18
12:30 1023 30.21 852 25.16 9.4 48.9 30 -7.5 18.5
12:35 1023 30.21 852 25.16 9.3 48.8 29 -8 17.6
12:40 1023 30.21 852 25.16 9.4 49 28 -8.3 17
12:45 1023 30.21 852 25.16 9.4 49 28 -8 17.6
12:50 1023 30.21 852 25.16 9.4 49 29 -7.7 18.1
12:55 1023 30.21 852 25.16 9.5 49.1 29 -7.8 17.9
13:00 1023 30.21 852 25.16 9.6 49.3 29 -7.7 18.2
13:05 1023 30.21 852 25.16 9.6 49.2 28 -7.9 17.8
13:10 1023 30.21 852 25.16 9.8 49.6 28 -7.8 18
13:15 1023 30.21 852 25.16 10 50 29 -7.2 19
13:20 1023 30.21 852 25.16 10.2 50.4 27 -7.7 18.1
13:25 1023 30.21 852 25.16 9.9 49.8 28 -7.6 18.3
13:30 1023 30.21 852 25.16 10 50 29 -7.4 18.7
13:35 1023 30.21 852 25.16 10.2 50.3 28 -7.7 18.1
13:40 1023 30.21 852 25.16 10 50 27 -7.9 17.8
13:45 1023 30.21 852 25.16 9.8 49.7 28 -7.8 18
13:50 1022 30.18 852 25.16 10 49.9 28 -7.6 18.2
13:55 1022 30.18 852 25.16 10.2 50.4 28 -7.6 18.3
14:00 1022 30.18 852 25.16 10.5 50.8 27 -7.9 17.7
14:05 1022 30.18 851 25.13 10.3 50.5 27 -8 17.7
14:10 1022 30.18 852 25.16 10.2 50.3 27 -8 17.6
14:15 1022 30.18 851 25.13 10.2 50.4 28 -7.6 18.4
14:20 1022 30.18 851 25.13 10.2 50.4 28 -7.7 18.2
14:25 1022 30.18 851 25.13 10.1 50.2 28 -7.7 18.1
14:30 1022 30.18 851 25.13 10.2 50.3 28 -7.6 18.3
14:35 1022 30.18 851 25.13 10.3 50.5 27 -7.8 17.9
14:40 1022 30.18 851 25.13 10.5 50.8 26 -8 17.6
14:45 1022 30.18 851 25.13 10.3 50.6 27 -8.1 17.4
14:50 1022 30.18 851 25.13 10.3 50.6 26 -8.4 16.8
14:55 1022 30.18 851 25.13 10.6 51.1 25 -8.4 16.9
15:00 1022 30.18 851 25.13 10.6 51.1 25 -8.7 16.4
15:05 1022 30.18 851 25.13 10.9 51.7 24 -9 15.8
15:10 1022 30.18 851 25.13 10.9 51.5 24 -9.1 15.6
15:15 1022 30.18 851 25.13 10.9 51.5 24 -9 15.8
15:20 1022 30.18 851 25.13 10.6 51.1 25 -8.5 16.7
15:25 1022 30.18 851 25.13 10.8 51.4 24 -9.2 15.5
15:30 1022 30.18 851 25.13 10.5 50.9 24 -9 15.7
15:35 1022 30.18 851 25.13 10.7 51.2 24 -9 15.7
15:40 1022 30.18 851 25.13 10.6 51.1 24 -9 15.8
15:45 1021 30.15 851 25.13 10.4 50.7 24 -9.6 14.8
15:50 1021 30.15 851 25.13 10.7 51.3 23 -9.4 15.2
15:55 1021 30.15 851 25.13 10.9 51.7 22 -9.8 14.4
16:00 1021 30.15 851 25.13 10.6 51 23 -9.7 14.5
16:05 1021 30.15 851 25.13 10.4 50.8 23 -9.8 14.3
16:10 1021 30.15 851 25.13 10.7 51.2 22 -9.9 14.1
16:15 1021 30.15 851 25.13 11.4 52.5 21 -10 14.1
16:20 1021 30.15 850 25.1 11.4 52.4 21 -10.2 13.6
16:25 1021 30.15 850 25.1 11.3 52.4 22 -9.6 14.7
16:30 1021 30.15 850 25.1 11.6 52.9 21 -10 13.9
16:35 1021 30.15 850 25.1 12.1 53.7 20 -9.9 14.1
16:40 1021 30.15 850 25.1 12 53.6 21 -9.7 14.5
16:45 1021 30.15 850 25.1 12.2 53.9 20 -9.9 14.2
16:50 1021 30.15 850 25.1 12.4 54.4 20 -9.8 14.4
16:55 1021 30.15 850 25.1 12.1 53.7 21 -9.5 14.9
17:00 1021 30.15 850 25.1 12.3 54.2 20 -9.8 14.3
17:05 1021 30.15 850 25.1 11.9 53.5 21 -9.8 14.3
17:10 1021 30.15 850 25.1 11.2 52.1 21 -10.6 12.9
17:15 1021 30.15 850 25.1 11.2 52.2 21 -10.3 13.4
17:20 1021 30.15 850 25.1 11 51.7 21 -10.5 13.1
17:25 1021 30.15 850 25.1 11.2 52.2 21 -10.3 13.5
17:30 1021 30.15 850 25.1 11.5 52.6 20 -10.5 13.1
17:35 1021 30.15 850 25.1 11.8 53.2 20 -10.7 12.8
17:40 1021 30.15 850 25.1 11.8 53.3 20 -10.6 12.9
17:45 1021 30.15 850 25.1 11.7 53 20 -10.7 12.7
17:50 1021 30.15 850 25.1 11.5 52.8 20 -10.6 12.9
17:55 1021 30.15 850 25.1 11.3 52.4 21 -10.3 13.4
18:00 1021 30.15 850 25.1 10.9 51.7 21 -10.4 13.2
18:05 1021 30.15 850 25.1 11.4 52.6 20 -10.7 12.8
18:10 1021 30.15 850 25.1 11.8 53.2 20 -10.3 13.5
18:15 1021 30.15 850 25.1 11.5 52.6 21 -10.3 13.4
18:20 1021 30.15 850 25.1 11 51.8 21 -10.5 13.2
18:25 1021 30.15 850 25.1 11 51.8 21 -10.5 13
18:30 1021 30.15 850 25.1 11.3 52.3 21 -10.5 13.1
18:35 1021 30.15 850 25.1 11.3 52.3 21 -10.3 13.5
18:40 1021 30.15 850 25.1 11.3 52.3 21 -10.4 13.2
18:45 1021 30.15 850 25.1 11.3 52.3 21 -10.4 13.3
18:50 1021 30.15 850 25.1 11.1 51.9 21 -10.2 13.7
18:55 1021 30.15 850 25.1 10.5 50.9 22 -10.2 13.7
19:00 1021 30.15 850 25.1 10.2 50.4 22 -10.4 13.3
19:05 1020 30.12 850 25.1 10.1 50.2 23 -10.1 13.7
19:10 1020 30.12 850 25.1 9.8 49.6 24 -10.1 13.8
19:15 1021 30.15 850 25.1 9.5 49 24 -10 14.1
19:20 1021 30.15 850 25.1 9.3 48.7 24 -10.2 13.6
19:25 1021 30.15 850 25.1 9.2 48.6 24 -10.2 13.6
19:30 1021 30.15 850 25.1 9.2 48.5 25 -10.1 13.9
19:35 1021 30.15 850 25.1 9 48.1 26 -9.6 14.8
19:40 1021 30.15 850 25.1 8.3 47 30 -8.4 16.9
19:45 1021 30.15 850 25.1 7.5 45.6 33 -7.9 17.8
19:50 1021 30.15 850 25.1 6.9 44.5 34 -7.8 17.9
19:55 1021 30.15 850 25.1 6.6 43.8 35 -7.7 18.1
20:00 1021 30.15 850 25.1 6.2 43.2 36 -7.7 18.1
20:05 1021 30.15 850 25.1 6 42.9 36 -7.8 17.9
20:10 1021 30.15 850 25.1 5.9 42.6 37 -7.9 17.8
20:15 1021 30.15 850 25.1 5.8 42.5 38 -7.5 18.5
20:20 1021 30.15 850 25.1 5.6 42.1 38 -7.5 18.6
20:25 1021 30.15 850 25.1 5.4 41.7 39 -7.3 18.8
20:30 1021 30.15 850 25.1 5.1 41.2 41 -7.2 19
20:35 1021 30.15 850 25.1 4.8 40.6 42 -7.2 19.1
20:40 1021 30.15 850 25.1 4.5 40.2 42 -7.3 18.9
20:45 1021 30.15 850 25.1 4.3 39.7 43 -7.2 19.1
20:50 1021 30.15 850 25.1 4 39.3 43 -7.3 18.8
20:55 1021 30.15 850 25.1 4.2 39.5 41 -8 17.6
21:00 1021 30.15 850 25.1 4.5 40.1 41 -7.8 18
21:05 1021 30.15 850 25.1 4.5 40 40 -7.9 17.8
21:10 1021 30.15 850 25.1 4.6 40.3 38 -8.5 16.8
21:15 1021 30.15 850 25.1 4.6 40.4 40 -7.8 18
21:20 1021 30.15 850 25.1 4.2 39.5 40 -8.2 17.3
21:25 1021 30.15 850 25.1 4.1 39.5 40 -8.3 17.1
21:30 1021 30.15 850 25.1 4.2 39.6 40 -8.1 17.4
21:35 1021 30.15 850 25.1 4.2 39.6 40 -8.1 17.4
21:40 1021 30.15 850 25.1 4.4 39.9 40 -8 17.6
21:45 1021 30.15 850 25.1 4.1 39.4 42 -7.7 18.2
21:50 1021 30.15 850 25.1 3.7 38.7 43 -7.8 18
21:55 1021 30.15 851 25.13 3.7 38.7 44 -7.3 18.9
22:00 1021 30.15 851 25.13 3.7 38.7 47 -6.4 20.4
22:05 1021 30.15 851 25.13 3.7 38.6 52 -5.2 22.6
22:10 1021 30.15 851 25.13 3.6 38.6 55 -4.5 24
22:15 1021 30.15 851 25.13 3.7 38.6 56 -4.3 24.3
22:20 1021 30.15 851 25.13 3.6 38.5 58 -3.8 25.1
22:25 1022 30.18 851 25.13 3.6 38.4 59 -3.6 25.5
22:30 1022 30.18 851 25.13 3.5 38.4 59 -3.7 25.3
22:35 1022 30.18 851 25.13 3.5 38.3 59 -3.8 25.2
22:40 1022 30.18 851 25.13 3.4 38.1 60 -3.6 25.5
22:45 1021 30.15 851 25.13 3.4 38.1 61 -3.5 25.6
22:50 1021 30.15 851 25.13 3.5 38.2 60 -3.5 25.6
22:55 1021 30.15 851 25.13 3.2 37.7 61 -3.6 25.6
23:00 1021 30.15 851 25.13 3.1 37.6 62 -3.5 25.8
23:05 1021 30.15 851 25.13 3.1 37.6 62 -3.4 25.9
23:10 1022 30.18 851 25.13 3 37.4 64 -3.3 26.1
23:15 1021 30.15 851 25.13 3.1 37.6 62 -3.4 25.9
23:20 1021 30.15 851 25.13 3.1 37.7 62 -3.3 26
23:25 1021 30.15 851 25.13 3 37.3 63 -3.4 25.8
23:30 1021 30.15 851 25.13 2.9 37.1 63 -3.6 25.6
23:35 1021 30.15 851 25.13 2.8 37 63 -3.7 25.4
23:40 1021 30.15 851 25.13 2.7 36.9 63 -3.7 25.3
23:45 1022 30.18 851 25.13 2.9 37.3 62 -3.6 25.5
23:50 1022 30.18 851 25.13 2.9 37.2 62 -3.6 25.5
23:55 1022 30.18 851 25.13 2.8 37.1 63 -3.6 25.6
24:00 1022 30.18 851 25.13 2.7 36.9 63 -3.5 25.7